createdAt,value
2019-05-01T00:00:38.437Z,3464
2019-05-01T00:01:39.172Z,3464
2019-05-01T00:02:39.955Z,3464
2019-05-01T00:03:40.772Z,3464
2019-05-01T00:04:41.510Z,3464
2019-05-01T00:05:42.236Z,3464
2019-05-01T00:06:42.981Z,3464
2019-05-01T00:07:43.755Z,3464
2019-05-01T00:08:44.579Z,3464
2019-05-01T00:09:45.321Z,3464
2019-05-01T00:10:46.123Z,3464
2019-05-01T00:11:46.886Z,3444
2019-05-01T00:12:47.643Z,3444
2019-05-01T00:13:48.406Z,3444
2019-05-01T00:14:49.158Z,3444
2019-05-01T00:15:49.927Z,3444
2019-05-01T00:16:50.652Z,3444
2019-05-01T00:17:51.423Z,3444
2019-05-01T00:18:52.213Z,3444
2019-05-01T00:19:52.934Z,3444
2019-05-01T00:20:53.694Z,3444
2019-05-01T00:21:54.391Z,3444
2019-05-01T00:22:55.138Z,3444
2019-05-01T00:23:55.853Z,3444
2019-05-01T00:24:56.583Z,3444
2019-05-01T00:25:57.367Z,3444
2019-05-01T00:26:58.136Z,3444
2019-05-01T00:27:58.909Z,3444
2019-05-01T00:28:59.701Z,3444
2019-05-01T00:30:00.407Z,3444
2019-05-01T00:31:01.200Z,3444
2019-05-01T00:32:01.940Z,3444
2019-05-01T00:33:02.722Z,3444
2019-05-01T00:34:03.485Z,3444
2019-05-01T00:35:04.264Z,3444
2019-05-01T00:36:04.988Z,3424
2019-05-01T00:37:05.706Z,3424
2019-05-01T00:38:06.489Z,3424
2019-05-01T00:39:07.272Z,3424
2019-05-01T00:40:07.994Z,3424
2019-05-01T00:41:08.726Z,3424
2019-05-01T00:42:09.474Z,3424
2019-05-01T00:43:10.271Z,3424
2019-05-01T00:44:11.078Z,3424
2019-05-01T00:45:11.852Z,3424
2019-05-01T00:46:12.587Z,3424
2019-05-01T00:47:13.308Z,3424
2019-05-01T00:48:14.107Z,3424
2019-05-01T00:49:14.899Z,3424
2019-05-01T00:50:15.665Z,3424
2019-05-01T00:51:16.477Z,3424
2019-05-01T00:52:17.200Z,3424
2019-05-01T00:53:17.974Z,3424
2019-05-01T00:54:18.777Z,3424
2019-05-01T00:55:19.506Z,3424
2019-05-01T00:56:20.202Z,3424
2019-05-01T00:57:20.903Z,3424
2019-05-01T00:58:21.641Z,3424
2019-05-01T00:59:22.359Z,3424
2019-05-01T01:00:23.096Z,3404
2019-05-01T01:01:23.861Z,3404
2019-05-01T01:02:24.601Z,3404
2019-05-01T01:03:25.355Z,3404
2019-05-01T01:04:26.138Z,3404
2019-05-01T01:05:26.898Z,3404
2019-05-01T01:06:27.622Z,3404
2019-05-01T01:07:28.345Z,3404
2019-05-01T01:08:29.135Z,3404
2019-05-01T01:09:29.880Z,3404
2019-05-01T01:10:30.650Z,3404
2019-05-01T01:11:31.411Z,3404
2019-05-01T01:12:32.135Z,3404
2019-05-01T01:13:32.952Z,3404
2019-05-01T01:14:33.694Z,3404
2019-05-01T01:15:34.447Z,3404
2019-05-01T01:16:35.276Z,3404
2019-05-01T01:17:35.985Z,3404
2019-05-01T01:18:36.745Z,3404
2019-05-01T01:19:37.503Z,3404
2019-05-01T01:20:38.296Z,3404
2019-05-01T01:21:39.099Z,3404
2019-05-01T01:22:39.796Z,3404
2019-05-01T01:23:40.583Z,3404
2019-05-01T01:24:41.332Z,3404
2019-05-01T01:25:42.097Z,3404
2019-05-01T01:26:42.874Z,3404
2019-05-01T01:27:43.624Z,3404
2019-05-01T01:28:44.419Z,3404
2019-05-01T01:29:45.145Z,3404
2019-05-01T01:30:55.571Z,3404
2019-05-01T01:31:57.621Z,3404
2019-05-01T01:32:58.334Z,3384
2019-05-01T01:33:59.067Z,3384
2019-05-01T01:34:59.799Z,3384
2019-05-01T01:36:00.598Z,3384
2019-05-01T01:37:01.409Z,3384
2019-05-01T01:38:02.223Z,3384
2019-05-01T01:39:02.987Z,3384
2019-05-01T01:40:03.699Z,3384
2019-05-01T01:41:04.445Z,3384
2019-05-01T01:42:05.240Z,3384
2019-05-01T01:43:06.030Z,3384
2019-05-01T01:44:06.804Z,3384
2019-05-01T01:45:07.542Z,3384
2019-05-01T01:46:08.300Z,3384
2019-05-01T01:47:09.087Z,3384
2019-05-01T01:48:09.824Z,3384
2019-05-01T01:49:10.593Z,3384
2019-05-01T01:50:11.323Z,3384
2019-05-01T01:51:12.071Z,3384
2019-05-01T01:52:12.878Z,3384
2019-05-01T01:53:13.598Z,3384
2019-05-01T01:54:14.370Z,3384
2019-05-01T01:55:15.090Z,3384
2019-05-01T01:56:15.807Z,3384
2019-05-01T01:57:16.575Z,3384
2019-05-01T01:58:17.328Z,3384
2019-05-01T01:59:18.122Z,3384
2019-05-01T02:00:18.857Z,3384
2019-05-01T02:01:19.638Z,3384
2019-05-01T02:02:20.464Z,3384
2019-05-01T02:03:21.189Z,3384
2019-05-01T02:04:21.986Z,3384
2019-05-01T02:05:22.726Z,3384
2019-05-01T02:06:23.507Z,3384
2019-05-01T02:07:24.275Z,3384
2019-05-01T02:08:24.980Z,3364
2019-05-01T02:09:25.742Z,3364
2019-05-01T02:10:26.507Z,3364
2019-05-01T02:11:27.658Z,3364
2019-05-01T02:12:28.443Z,3364
2019-05-01T02:13:29.169Z,3364
2019-05-01T02:14:29.923Z,3364
2019-05-01T02:15:30.646Z,3364
2019-05-01T02:16:31.382Z,3364
2019-05-01T02:17:32.164Z,3364
2019-05-01T02:18:32.892Z,3364
2019-05-01T02:19:33.655Z,3364
2019-05-01T02:20:34.391Z,3364
2019-05-01T02:21:35.163Z,3364
2019-05-01T02:22:35.920Z,3364
2019-05-01T02:23:36.646Z,3364
2019-05-01T02:24:37.442Z,3364
2019-05-01T02:25:38.167Z,3364
2019-05-01T02:26:38.923Z,3364
2019-05-01T02:27:39.711Z,3364
2019-05-01T02:28:40.439Z,3364
2019-05-01T02:29:41.258Z,3364
2019-05-01T02:30:42.026Z,3364
2019-05-01T02:31:42.851Z,3364
2019-05-01T02:32:43.684Z,3344
2019-05-01T02:33:44.421Z,3344
2019-05-01T02:34:45.242Z,3344
2019-05-01T02:35:46.000Z,3344
2019-05-01T02:36:46.774Z,3344
2019-05-01T02:37:47.702Z,3344
2019-05-01T02:38:48.449Z,3344
2019-05-01T02:39:49.236Z,3344
2019-05-01T02:40:49.986Z,3344
2019-05-01T02:41:50.715Z,3344
2019-05-01T02:42:51.479Z,3344
2019-05-01T02:43:52.187Z,3344
2019-05-01T02:44:52.987Z,3344
2019-05-01T02:45:53.789Z,3324
2019-05-01T02:46:54.576Z,3324
2019-05-01T02:47:55.413Z,3324
2019-05-01T02:48:56.158Z,3324
2019-05-01T02:49:56.924Z,3324
2019-05-01T02:50:57.647Z,3324
2019-05-01T02:51:58.421Z,3324
2019-05-01T02:52:59.226Z,3324
2019-05-01T02:53:59.950Z,3324
2019-05-01T02:55:00.765Z,3324
2019-05-01T02:56:01.490Z,3324
2019-05-01T02:57:02.255Z,3304
2019-05-01T02:58:03.052Z,3304
2019-05-01T02:59:03.778Z,3304
2019-05-01T03:00:04.611Z,3304
2019-05-01T03:01:05.392Z,3304
2019-05-01T03:02:06.146Z,3304
2019-05-01T03:03:06.919Z,3304
2019-05-01T03:04:07.676Z,3304
2019-05-01T03:05:08.464Z,3304
2019-05-01T03:06:09.230Z,3304
2019-05-01T03:07:09.966Z,3304
2019-05-01T03:08:10.783Z,3284
2019-05-01T03:09:11.532Z,3284
2019-05-01T03:10:12.314Z,3284
2019-05-01T03:11:13.075Z,3284
2019-05-01T03:12:13.804Z,3284
2019-05-01T03:13:14.610Z,3284
2019-05-01T03:14:15.410Z,3284
2019-05-01T03:15:16.245Z,3284
2019-05-01T03:16:17.017Z,3284
2019-05-01T03:17:17.764Z,3284
2019-05-01T03:18:18.548Z,3264
2019-05-01T03:19:19.325Z,3264
2019-05-01T03:20:20.320Z,3264
2019-05-01T03:21:21.086Z,3264
2019-05-01T03:22:21.872Z,3264
2019-05-01T03:23:22.687Z,3264
2019-05-01T03:24:23.485Z,3264
2019-05-01T03:25:24.246Z,3264
2019-05-01T03:26:24.958Z,3264
2019-05-01T03:27:25.710Z,3244
2019-05-01T03:28:26.501Z,3244
2019-05-01T03:29:27.218Z,3244
2019-05-01T03:30:28.153Z,3244
2019-05-01T03:31:28.933Z,3244
2019-05-01T03:32:29.678Z,3244
2019-05-01T03:33:30.471Z,3244
2019-05-01T03:34:31.238Z,3244
2019-05-01T03:35:32.071Z,3244
2019-05-01T03:36:32.856Z,3224
2019-05-01T03:37:33.578Z,3224
2019-05-01T03:38:34.403Z,3224
2019-05-01T03:39:35.260Z,3224
2019-05-01T03:40:36.098Z,3224
2019-05-01T03:41:36.849Z,3224
2019-05-01T03:42:37.647Z,3224
2019-05-01T03:43:38.429Z,3224
2019-05-01T03:44:39.215Z,3204
2019-05-01T03:45:40.075Z,3204
2019-05-01T03:46:40.818Z,3204
2019-05-01T03:47:41.632Z,3204
2019-05-01T03:48:42.428Z,3204
2019-05-01T03:49:43.152Z,3204
2019-05-01T03:50:46.693Z,3204
2019-05-01T03:51:48.254Z,3204
2019-05-01T03:52:49.010Z,3204
2019-05-01T03:53:49.745Z,3184
2019-05-01T03:54:50.481Z,3184
2019-05-01T03:55:51.305Z,3184
2019-05-01T03:56:52.090Z,3184
2019-05-01T03:57:52.914Z,3184
2019-05-01T03:58:53.718Z,3184
2019-05-01T03:59:54.420Z,3184
2019-05-01T04:00:55.198Z,3164
2019-05-01T04:01:55.956Z,3164
2019-05-01T04:02:56.738Z,3164
2019-05-01T04:03:57.538Z,3164
2019-05-01T04:04:58.318Z,3164
2019-05-01T04:05:59.127Z,3164
2019-05-01T04:06:59.863Z,3164
2019-05-01T04:08:00.635Z,3164
2019-05-01T04:09:01.387Z,3144
2019-05-01T04:10:02.160Z,3144
2019-05-01T04:11:02.951Z,3144
2019-05-01T04:12:03.771Z,3144
2019-05-01T04:13:04.574Z,3144
2019-05-01T04:14:05.426Z,3144
2019-05-01T04:15:06.187Z,3144
2019-05-01T04:16:06.992Z,3124
2019-05-01T04:17:07.722Z,3124
2019-05-01T04:18:08.511Z,3124
2019-05-01T04:19:09.289Z,3124
2019-05-01T04:20:10.092Z,3124
2019-05-01T04:21:10.836Z,3124
2019-05-01T04:22:11.550Z,3124
2019-05-01T04:23:12.319Z,3104
2019-05-01T04:24:13.142Z,3104
2019-05-01T04:25:13.901Z,3104
2019-05-01T04:26:14.711Z,3104
2019-05-01T04:27:15.447Z,3104
2019-05-01T04:28:16.229Z,3104
2019-05-01T04:29:17.057Z,3104
2019-05-01T04:30:17.871Z,3104
2019-05-01T04:31:18.737Z,3084
2019-05-01T04:32:19.511Z,3084
2019-05-01T04:33:20.320Z,3084
2019-05-01T04:34:41.522Z,3344
2019-05-01T04:35:42.358Z,3364
2019-05-01T04:36:43.180Z,3364
2019-05-01T04:37:43.946Z,3384
2019-05-01T04:38:44.713Z,3404
2019-05-01T04:39:45.488Z,3424
2019-05-01T04:40:46.334Z,3424
2019-05-01T04:41:47.079Z,3444
2019-05-01T04:42:47.856Z,3444
2019-05-01T04:43:48.674Z,3464
2019-05-01T04:44:49.436Z,3464
2019-05-01T04:45:50.230Z,3484
2019-05-01T04:46:53.398Z,3484
2019-05-01T04:47:54.578Z,3484
2019-05-01T04:48:55.384Z,3504
2019-05-01T04:49:56.164Z,3504
2019-05-01T04:50:56.966Z,3524
2019-05-01T04:51:57.731Z,3524
2019-05-01T04:52:58.525Z,3524
2019-05-01T04:53:59.253Z,3524
2019-05-01T04:54:59.976Z,3544
2019-05-01T04:56:00.757Z,3544
2019-05-01T04:57:01.561Z,3544
2019-05-01T04:58:02.349Z,3544
2019-05-01T04:59:03.096Z,3564
2019-05-01T05:00:03.863Z,3564
2019-05-01T05:01:04.627Z,3564
2019-05-01T05:02:05.426Z,3564
2019-05-01T05:03:06.202Z,3564
2019-05-01T05:04:06.991Z,3564
2019-05-01T05:05:07.757Z,3564
2019-05-01T05:06:08.546Z,3564
2019-05-01T05:07:09.287Z,3564
2019-05-01T05:08:10.058Z,3584
2019-05-01T05:09:10.814Z,3584
2019-05-01T05:10:11.595Z,3584
2019-05-01T05:11:12.405Z,3584
2019-05-01T05:12:13.164Z,3584
2019-05-01T05:13:13.914Z,3584
2019-05-01T05:14:14.693Z,3584
2019-05-01T05:15:15.460Z,3584
2019-05-01T05:16:16.271Z,3584
2019-05-01T05:17:17.120Z,3584
2019-05-01T05:18:17.853Z,3584
2019-05-01T05:19:18.643Z,3584
2019-05-01T05:20:19.486Z,3584
2019-05-01T05:21:20.319Z,3584
2019-05-01T05:22:21.040Z,3584
2019-05-01T05:23:21.844Z,3604
2019-05-01T05:24:22.603Z,3604
2019-05-01T05:25:23.378Z,3604
2019-05-01T05:26:24.164Z,3604
2019-05-01T05:27:24.919Z,3604
2019-05-01T05:28:25.717Z,3604
2019-05-01T05:29:26.478Z,3604
2019-05-01T05:30:27.263Z,3604
2019-05-01T05:31:28.077Z,3604
2019-05-01T05:32:28.860Z,3604
2019-05-01T05:33:29.640Z,3604
2019-05-01T05:34:30.443Z,3604
2019-05-01T05:35:31.287Z,3624
2019-05-01T05:36:32.079Z,3624
2019-05-01T05:37:32.815Z,3624
2019-05-01T05:38:33.551Z,3624
2019-05-01T05:39:34.282Z,3624
2019-05-01T05:40:35.028Z,3624
2019-05-01T05:41:35.820Z,3624
2019-05-01T05:42:36.586Z,3624
2019-05-01T05:43:37.337Z,3624
2019-05-01T05:44:38.055Z,3624
2019-05-01T05:45:38.855Z,3644
2019-05-01T05:46:39.660Z,3644
2019-05-01T05:47:40.385Z,3644
2019-05-01T05:48:41.146Z,3644
2019-05-01T05:49:41.916Z,3644
2019-05-01T05:50:42.617Z,3644
2019-05-01T05:51:43.386Z,3644
2019-05-01T05:52:44.089Z,3644
2019-05-01T05:53:44.833Z,3644
2019-05-01T05:54:45.561Z,3644
2019-05-01T05:55:46.291Z,3644
2019-05-01T05:56:47.102Z,3664
2019-05-01T05:57:47.865Z,3664
2019-05-01T05:58:48.671Z,3664
2019-05-01T05:59:49.434Z,3664
2019-05-01T06:00:50.180Z,3664
2019-05-01T06:01:50.973Z,3664
2019-05-01T06:02:51.732Z,3664
2019-05-01T06:03:52.535Z,3664
2019-05-01T06:04:53.263Z,3664
2019-05-01T06:05:54.023Z,3664
2019-05-01T06:06:54.835Z,3664
2019-05-01T06:07:55.559Z,3684
2019-05-01T06:08:56.347Z,3684
2019-05-01T06:09:57.075Z,3684
2019-05-01T06:10:58.394Z,3684
2019-05-01T06:12:04.802Z,3684
2019-05-01T06:13:10.748Z,3684
2019-05-01T06:14:11.544Z,3684
2019-05-01T06:15:12.306Z,3684
2019-05-01T06:16:16.115Z,3684
2019-05-01T06:17:18.128Z,3684
2019-05-01T06:18:18.878Z,3704
2019-05-01T06:19:19.693Z,3704
2019-05-01T06:20:20.745Z,3704
2019-05-01T06:21:28.190Z,3704
2019-05-01T06:22:28.973Z,3704
2019-05-01T06:23:29.718Z,3704
2019-05-01T06:24:30.460Z,3704
2019-05-01T06:25:31.189Z,3704
2019-05-01T06:26:37.044Z,3704
2019-05-01T06:27:40.167Z,3704
2019-05-01T06:28:40.934Z,3704
2019-05-01T06:29:41.709Z,3704
2019-05-01T06:30:46.994Z,3704
2019-05-01T06:31:49.538Z,3724
2019-05-01T06:32:59.501Z,3724
2019-05-01T06:34:10.150Z,3724
2019-05-01T06:35:10.901Z,3724
2019-05-01T06:36:13.147Z,3724
2019-05-01T06:37:14.982Z,3724
2019-05-01T06:38:15.769Z,3724
2019-05-01T06:39:16.624Z,3724
2019-05-01T06:40:18.692Z,3724
2019-05-01T06:41:24.177Z,3724
2019-05-01T06:42:24.920Z,3724
2019-05-01T06:43:27.164Z,3724
2019-05-01T06:44:28.125Z,3724
2019-05-01T06:45:28.847Z,3744
2019-05-01T06:46:29.561Z,3744
2019-05-01T06:47:30.272Z,3744
2019-05-01T06:48:33.216Z,3744
2019-05-01T06:49:34.207Z,3744
2019-05-01T06:50:36.941Z,3744
2019-05-01T06:51:43.487Z,3744
2019-05-01T06:52:48.669Z,3744
2019-05-01T06:53:49.461Z,3744
2019-05-01T06:54:52.050Z,3744
2019-05-01T06:55:54.253Z,3744
2019-05-01T06:56:55.004Z,3744
2019-05-01T06:57:55.757Z,3744
2019-05-01T06:58:56.555Z,3744
2019-05-01T06:59:57.446Z,3744
2019-05-01T07:00:58.189Z,3744
2019-05-01T07:02:00.198Z,3744
2019-05-01T07:03:01.011Z,3744
2019-05-01T07:04:03.783Z,3764
2019-05-01T07:05:08.947Z,3764
2019-05-01T07:06:16.920Z,3764
2019-05-01T07:07:24.886Z,3764
2019-05-01T07:08:29.411Z,3764
2019-05-01T07:09:44.030Z,3764
2019-05-01T07:10:51.613Z,3764
2019-05-01T07:11:54.329Z,3764
2019-05-01T07:12:55.377Z,3764
2019-05-01T07:14:00.133Z,3764
2019-05-01T07:15:00.835Z,3764
2019-05-01T07:16:03.237Z,3764
2019-05-01T07:17:04.125Z,3764
2019-05-01T07:18:04.824Z,3764
2019-05-01T07:19:06.905Z,3764
2019-05-01T07:20:11.777Z,3764
2019-05-01T07:21:22.727Z,3764
2019-05-01T07:22:36.999Z,3784
2019-05-01T07:23:47.713Z,3784
2019-05-01T07:24:53.876Z,3784
2019-05-01T07:25:54.586Z,3784
2019-05-01T07:26:55.367Z,3784
2019-05-01T07:27:58.427Z,3784
2019-05-01T07:29:00.369Z,3784
2019-05-01T07:30:01.159Z,3784
2019-05-01T07:31:04.751Z,3784
2019-05-01T07:32:06.535Z,3784
2019-05-01T07:33:11.895Z,3784
2019-05-01T07:34:21.599Z,3784
2019-05-01T07:35:27.962Z,3784
2019-05-01T07:36:28.724Z,3784
2019-05-01T07:37:29.540Z,3784
2019-05-01T07:38:32.845Z,3784
2019-05-01T07:39:44.784Z,3784
2019-05-01T07:40:52.268Z,3784
2019-05-01T07:41:53.015Z,3804
2019-05-01T07:42:53.831Z,3804
2019-05-01T07:43:54.815Z,3804
2019-05-01T07:45:03.754Z,3804
2019-05-01T07:46:13.693Z,3804
2019-05-01T07:47:20.039Z,3804
2019-05-01T07:48:20.819Z,3804
2019-05-01T07:49:21.638Z,3804
2019-05-01T07:50:23.830Z,3804
2019-05-01T07:51:33.279Z,3804
2019-05-01T07:52:33.992Z,3804
2019-05-01T07:53:34.800Z,3804
2019-05-01T07:54:37.711Z,3804
2019-05-01T07:55:44.006Z,3804
2019-05-01T07:56:45.032Z,3804
2019-05-01T07:57:45.791Z,3804
2019-05-01T07:58:47.403Z,3804
2019-05-01T07:59:58.109Z,3824
2019-05-01T08:01:08.650Z,3824
2019-05-01T08:02:20.662Z,3824
2019-05-01T08:03:21.409Z,3824
2019-05-01T08:04:34.791Z,3824
2019-05-01T08:05:40.720Z,3824
2019-05-01T08:06:47.377Z,3824
2019-05-01T08:07:48.175Z,3824
2019-05-01T08:08:48.898Z,3824
2019-05-01T08:09:50.206Z,3824
2019-05-01T08:10:52.133Z,3824
2019-05-01T08:11:52.883Z,3824
2019-05-01T08:12:55.265Z,3824
2019-05-01T08:14:07.414Z,3824
2019-05-01T08:15:16.920Z,3844
2019-05-01T08:16:17.664Z,3844
2019-05-01T08:17:19.810Z,3844
2019-05-01T08:18:23.978Z,3844
2019-05-01T08:19:29.899Z,3844
2019-05-01T08:20:30.748Z,3844
2019-05-01T08:21:31.535Z,3844
2019-05-01T08:22:37.020Z,3844
2019-05-01T08:23:42.557Z,3844
2019-05-01T08:24:48.775Z,3844
2019-05-01T08:25:49.645Z,3844
2019-05-01T08:26:50.456Z,3844
2019-05-01T08:27:56.077Z,3844
2019-05-01T08:29:02.907Z,3864
2019-05-01T08:30:12.650Z,3864
2019-05-01T08:31:22.929Z,3864
2019-05-01T08:32:33.656Z,3864
2019-05-01T08:33:44.717Z,3864
2019-05-01T08:34:55.614Z,3864
2019-05-01T08:36:06.692Z,3864
2019-05-01T08:37:17.726Z,3864
2019-05-01T08:38:29.712Z,3864
2019-05-01T08:39:39.569Z,3864
2019-05-01T08:40:46.442Z,3864
2019-05-01T08:41:55.985Z,3884
2019-05-01T08:42:56.734Z,3884
2019-05-01T08:43:57.490Z,3884
2019-05-01T08:44:59.798Z,3884
2019-05-01T08:46:07.467Z,3884
2019-05-01T08:47:12.419Z,3884
2019-05-01T08:48:13.178Z,3884
2019-05-01T08:49:13.978Z,3884
2019-05-01T08:50:14.720Z,3884
2019-05-01T08:51:15.457Z,3884
2019-05-01T08:52:16.182Z,3884
2019-05-01T08:53:17.967Z,3884
2019-05-01T08:54:23.889Z,3884
2019-05-01T08:55:24.672Z,3904
2019-05-01T08:56:25.459Z,3904
2019-05-01T08:57:28.978Z,3904
2019-05-01T08:58:39.940Z,3904
2019-05-01T08:59:40.689Z,3904
2019-05-01T09:00:41.517Z,3904
2019-05-01T09:01:45.692Z,3904
2019-05-01T09:03:08.911Z,3904
2019-05-01T09:04:18.954Z,3904
2019-05-01T09:05:28.093Z,3904
2019-05-01T09:06:35.082Z,3904
2019-05-01T09:07:45.661Z,3904
2019-05-01T09:08:46.644Z,3904
2019-05-01T09:09:47.564Z,3924
2019-05-01T09:10:49.713Z,3924
2019-05-01T09:12:00.824Z,3924
2019-05-01T09:13:01.654Z,3924
2019-05-01T09:14:02.386Z,3924
2019-05-01T09:15:07.023Z,3924
2019-05-01T09:16:15.266Z,3924
2019-05-01T09:17:16.055Z,3924
2019-05-01T09:18:18.866Z,3924
2019-05-01T09:19:19.742Z,3924
2019-05-01T09:20:20.496Z,3924
2019-05-01T09:21:21.249Z,3924
2019-05-01T09:22:22.080Z,3924
2019-05-01T09:23:22.855Z,3944
2019-05-01T09:24:27.829Z,3944
2019-05-01T09:25:30.831Z,3944
2019-05-01T09:26:37.415Z,3944
2019-05-01T09:27:38.198Z,3944
2019-05-01T09:28:39.695Z,3944
2019-05-01T09:29:41.602Z,3944
2019-05-01T09:30:42.337Z,3944
2019-05-01T09:31:43.076Z,3944
2019-05-01T09:32:45.469Z,3944
2019-05-01T09:33:56.035Z,3944
2019-05-01T09:34:58.359Z,3944
2019-05-01T09:35:59.218Z,3964
2019-05-01T09:36:59.953Z,3964
2019-05-01T09:38:00.720Z,3964
2019-05-01T09:39:01.482Z,3964
2019-05-01T09:40:03.991Z,3964
2019-05-01T09:41:10.967Z,3964
2019-05-01T09:42:11.692Z,3964
2019-05-01T09:43:12.483Z,3964
2019-05-01T09:44:13.292Z,3964
2019-05-01T09:45:14.101Z,3964
2019-05-01T09:46:14.872Z,3964
2019-05-01T09:47:15.663Z,3984
2019-05-01T09:48:16.491Z,3984
2019-05-01T09:49:18.145Z,3984
2019-05-01T09:50:20.234Z,3984
2019-05-01T09:51:20.980Z,3984
2019-05-01T09:52:23.313Z,3984
2019-05-01T09:53:29.621Z,3984
2019-05-01T09:54:36.180Z,3984
2019-05-01T09:55:36.958Z,3984
2019-05-01T09:56:38.361Z,3984
2019-05-01T09:57:41.201Z,3984
2019-05-01T09:58:43.538Z,3984
2019-05-01T09:59:44.348Z,3984
2019-05-01T10:00:48.685Z,3984
2019-05-01T10:01:54.505Z,4004
2019-05-01T10:02:55.255Z,4004
2019-05-01T10:03:56.428Z,4004
2019-05-01T10:04:57.280Z,4004
2019-05-01T10:05:58.037Z,4004
2019-05-01T10:06:58.738Z,4004
2019-05-01T10:08:04.026Z,4004
2019-05-01T10:09:06.266Z,4004
2019-05-01T10:10:07.062Z,4004
2019-05-01T10:11:07.817Z,4004
2019-05-01T10:12:11.451Z,4004
2019-05-01T10:13:17.604Z,4004
2019-05-01T10:14:24.743Z,4004
2019-05-01T10:15:25.557Z,4004
2019-05-01T10:16:26.324Z,4004
2019-05-01T10:17:27.036Z,4004
2019-05-01T10:18:27.780Z,4004
2019-05-01T10:19:28.626Z,4024
2019-05-01T10:20:29.460Z,4004
2019-05-01T10:21:30.270Z,4024
2019-05-01T10:22:32.850Z,4024
2019-05-01T10:23:39.231Z,4024
2019-05-01T10:24:40.011Z,4024
2019-05-01T10:25:42.751Z,4024
2019-05-01T10:26:50.364Z,4024
2019-05-01T10:27:52.911Z,4024
2019-05-01T10:28:53.827Z,4024
2019-05-01T10:29:56.806Z,4024
2019-05-01T10:31:06.866Z,4024
2019-05-01T10:32:16.841Z,4024
2019-05-01T10:33:23.637Z,4024
2019-05-01T10:34:24.368Z,4024
2019-05-01T10:35:25.157Z,4024
2019-05-01T10:36:26.003Z,4024
2019-05-01T10:37:28.201Z,4044
2019-05-01T10:38:39.810Z,4044
2019-05-01T10:39:50.094Z,4044
2019-05-01T10:40:56.056Z,4044
2019-05-01T10:41:56.813Z,4044
2019-05-01T10:42:57.591Z,4044
2019-05-01T10:43:58.356Z,4044
2019-05-01T10:44:59.158Z,4044
2019-05-01T10:45:59.958Z,4044
2019-05-01T10:47:02.062Z,4044
2019-05-01T10:48:03.061Z,4044
2019-05-01T10:49:03.783Z,4044
2019-05-01T10:50:04.527Z,4044
2019-05-01T10:51:05.272Z,4044
2019-05-01T10:52:13.833Z,4044
2019-05-01T10:53:15.328Z,4044
2019-05-01T10:54:16.071Z,4044
2019-05-01T10:55:16.800Z,4044
2019-05-01T10:56:17.593Z,4064
2019-05-01T10:57:18.428Z,4064
2019-05-01T10:58:20.217Z,4064
2019-05-01T10:59:21.062Z,4064
2019-05-01T11:00:21.783Z,4064
2019-05-01T11:01:22.598Z,4064
2019-05-01T11:02:23.380Z,4064
2019-05-01T11:03:24.138Z,4064
2019-05-01T11:04:24.881Z,4064
2019-05-01T11:05:25.591Z,4064
2019-05-01T11:06:26.386Z,4064
2019-05-01T11:07:27.181Z,4064
2019-05-01T11:08:27.933Z,4064
2019-05-01T11:09:28.695Z,4064
2019-05-01T11:10:29.437Z,4064
2019-05-01T11:11:30.240Z,4084
2019-05-01T11:12:30.993Z,4084
2019-05-01T11:13:31.790Z,4084
2019-05-01T11:14:32.561Z,4084
2019-05-01T11:15:33.312Z,4084
2019-05-01T11:16:34.089Z,4084
2019-05-01T11:17:34.885Z,4084
2019-05-01T11:18:35.660Z,4084
2019-05-01T11:19:36.383Z,4084
2019-05-01T11:20:37.130Z,4084
2019-05-01T11:21:37.918Z,4084
2019-05-01T11:22:38.699Z,4084
2019-05-01T11:23:39.485Z,4104
2019-05-01T11:24:40.250Z,4104
2019-05-01T11:25:40.972Z,4104
2019-05-01T11:26:41.779Z,4104
2019-05-01T11:27:42.572Z,4104
2019-05-01T11:28:43.359Z,4104
2019-05-01T11:29:44.129Z,4104
2019-05-01T11:30:44.929Z,4104
2019-05-01T11:31:45.722Z,4104
2019-05-01T11:32:46.522Z,4104
2019-05-01T11:33:47.282Z,4104
2019-05-01T11:34:48.029Z,4124
2019-05-01T11:35:48.736Z,4124
2019-05-01T11:36:49.540Z,4124
2019-05-01T11:37:50.351Z,4124
2019-05-01T11:38:51.097Z,4124
2019-05-01T11:39:51.844Z,4124
2019-05-01T11:40:52.641Z,4124
2019-05-01T11:41:53.394Z,4124
2019-05-01T11:42:54.228Z,4124
2019-05-01T11:43:54.986Z,4124
2019-05-01T11:44:55.702Z,4144
2019-05-01T11:45:56.513Z,4144
2019-05-01T11:46:57.231Z,4144
2019-05-01T11:47:58.065Z,4144
2019-05-01T11:48:58.849Z,4144
2019-05-01T11:49:59.618Z,4144
2019-05-01T11:51:00.431Z,4144
2019-05-01T11:52:01.132Z,4144
2019-05-01T11:53:01.917Z,4144
2019-05-01T11:54:02.718Z,4144
2019-05-01T11:55:03.470Z,4144
2019-05-01T11:56:04.340Z,4164
2019-05-01T11:57:05.175Z,4164
2019-05-01T11:58:05.972Z,4164
2019-05-01T11:59:06.771Z,4164
2019-05-01T12:00:07.551Z,4164
2019-05-01T12:01:08.338Z,4164
2019-05-01T12:02:09.039Z,4164
2019-05-01T12:03:09.756Z,4164
2019-05-01T12:04:10.515Z,4164
2019-05-01T12:05:11.320Z,4164
2019-05-01T12:06:22.282Z,4164
2019-05-01T12:07:24.041Z,4184
2019-05-01T12:08:24.794Z,4164
2019-05-01T12:09:25.494Z,4184
2019-05-01T12:10:26.253Z,4184
2019-05-01T12:11:27.062Z,4184
2019-05-01T12:12:27.799Z,4184
2019-05-01T12:13:28.543Z,4184
2019-05-01T12:14:29.365Z,4184
2019-05-01T12:15:30.201Z,4184
2019-05-01T12:16:31.007Z,4184
2019-05-01T12:17:31.764Z,4184
2019-05-01T12:18:32.507Z,4184
2019-05-01T12:19:33.237Z,4184
2019-05-01T12:20:34.056Z,4184
2019-05-01T12:21:34.914Z,4184
2019-05-01T12:22:35.702Z,4184
2019-05-01T12:23:36.472Z,4184
2019-05-01T12:24:37.248Z,4184
2019-05-01T12:25:38.093Z,4184
2019-05-01T12:26:38.851Z,4204
2019-05-01T12:27:39.603Z,4204
2019-05-01T12:28:40.303Z,4204
2019-05-01T12:29:41.047Z,4204
2019-05-01T12:30:41.897Z,4204
2019-05-01T12:31:42.695Z,4204
2019-05-01T12:32:43.435Z,4204
2019-05-01T12:33:44.222Z,4204
2019-05-01T12:34:44.967Z,4204
2019-05-01T12:35:45.792Z,4204
2019-05-01T12:36:46.609Z,4204
2019-05-01T12:37:47.356Z,4204
2019-05-01T12:38:48.127Z,4204
2019-05-01T12:39:48.909Z,4204
2019-05-01T12:40:49.797Z,4204
2019-05-01T12:41:50.615Z,4204
2019-05-01T12:42:51.347Z,4204
2019-05-01T12:43:52.075Z,4204
2019-05-01T12:44:52.886Z,4204
2019-05-01T12:45:53.703Z,4204
2019-05-01T12:46:54.451Z,4204
2019-05-01T12:47:55.215Z,4204
2019-05-01T12:48:55.976Z,4204
2019-05-01T12:49:56.697Z,4204
2019-05-01T12:50:57.518Z,4204
2019-05-01T12:52:09.760Z,4204
2019-05-01T12:53:11.508Z,4204
2019-05-01T12:54:12.258Z,4204
2019-05-01T12:55:12.987Z,4204
2019-05-01T12:56:13.846Z,4204
2019-05-01T12:57:14.668Z,4204
2019-05-01T12:58:15.450Z,4204
2019-05-01T12:59:16.252Z,4204
2019-05-01T13:00:17.015Z,4204
2019-05-01T13:01:17.802Z,4204
2019-05-01T13:02:18.555Z,4204
2019-05-01T13:03:19.256Z,4204
2019-05-01T13:04:19.999Z,4204
2019-05-01T13:05:20.734Z,4204
2019-05-01T13:06:21.572Z,4204
2019-05-01T13:07:22.329Z,4204
2019-05-01T13:08:23.095Z,4204
2019-05-01T13:09:23.865Z,4204
2019-05-01T13:10:24.632Z,4204
2019-05-01T13:11:25.455Z,4204
2019-05-01T13:12:26.230Z,4204
2019-05-01T13:13:26.975Z,4204
2019-05-01T13:14:27.712Z,4204
2019-05-01T13:15:28.481Z,4204
2019-05-01T13:16:29.360Z,4204
2019-05-01T13:17:30.160Z,4204
2019-05-01T13:18:30.900Z,4204
2019-05-01T13:19:31.604Z,4204
2019-05-01T13:20:32.326Z,4204
2019-05-01T13:21:33.181Z,4204
2019-05-01T13:22:33.989Z,4204
2019-05-01T13:23:34.712Z,4204
2019-05-01T13:24:35.470Z,4204
2019-05-01T13:25:36.214Z,4204
2019-05-01T13:26:37.025Z,4204
2019-05-01T13:27:37.829Z,4204
2019-05-01T13:28:38.529Z,4204
2019-05-01T13:29:39.258Z,4204
2019-05-01T13:30:39.957Z,4204
2019-05-01T13:31:40.766Z,4204
2019-05-01T13:32:41.585Z,4204
2019-05-01T13:33:42.354Z,4204
2019-05-01T13:34:43.117Z,4204
2019-05-01T13:35:43.871Z,4204
2019-05-01T13:36:44.622Z,4204
2019-05-01T13:37:45.439Z,4204
2019-05-01T13:38:46.181Z,4204
2019-05-01T13:39:46.891Z,4204
2019-05-01T13:40:47.656Z,4204
2019-05-01T13:41:48.458Z,4204
2019-05-01T13:42:49.256Z,4204